Time;durP1;ratioP1;P1;durP2;ratioP2;P2;SDS_P1;SDS_P2;PMS_P1;PMS_P2;Temp;Humidity;BMP_temperature;BMP_pressure;BME280_temperature;BME280_humidity;BME280_pressure;Samples;Min_cycle;Max_cycle;Signal;HPM_P1;HPM_P2
2022/10/25 00:01:14;;;;;;;42.63;14.53;;;;;;;-141.28;100.00;49564.81;5134834;27;20201;-77
2022/10/25 00:03:42;;;;;;;38.93;13.87;;;;;;;-141.28;100.00;49537.34;5134508;27;20245;-76
2022/10/25 00:06:10;;;;;;;42.53;14.83;;;;;;;-141.28;100.00;49500.06;5134626;27;20206;-76
2022/10/25 00:08:37;;;;;;;50.43;18.80;;;;;;;-141.28;100.00;49462.78;5134640;27;20684;-77
2022/10/25 00:11:05;;;;;;;38.43;15.10;;;;;;;-141.28;100.00;49437.25;5134332;27;20639;-76
2022/10/25 00:13:32;;;;;;;46.73;16.40;;;;;;;-141.28;100.00;49411.75;5134536;27;20217;-76
2022/10/25 00:16:00;;;;;;;46.90;17.03;;;;;;;-141.28;100.00;49409.78;5133801;27;20255;-78
2022/10/25 00:18:26;;;;;;;77.23;29.07;;;;;;;-141.28;100.00;49380.34;5134444;27;20207;-76
2022/10/25 00:20:55;;;;;;;85.13;33.10;;;;;;;-141.28;100.00;49374.47;5125773;27;20256;-78
2022/10/25 00:23:22;;;;;;;67.67;25.83;;;;;;;-141.28;100.00;49380.34;5119102;27;20203;-79
2022/10/25 00:25:48;;;;;;;49.13;18.83;;;;;;;-141.28;100.00;49352.88;5122373;27;20247;-79
2022/10/25 00:28:15;;;;;;;40.57;16.47;;;;;;;-141.28;100.00;49356.81;5132531;27;20606;-78
2022/10/25 00:30:42;;;;;;;45.57;20.30;;;;;;;-141.28;100.00;49352.88;5125921;27;20210;-76
2022/10/25 00:33:09;;;;;;;38.90;16.03;;;;;;;-141.28;100.00;49327.38;5134879;27;20286;-77
2022/10/25 00:35:36;;;;;;;45.30;19.60;;;;;;;-141.28;100.00;49333.25;5134982;27;20198;-78
2022/10/25 00:38:04;;;;;;;46.63;19.33;;;;;;;-141.28;100.00;49321.50;5127913;27;20633;-77
2022/10/25 00:40:31;;;;;;;42.30;18.33;;;;;;;-141.28;100.00;49284.22;5134437;27;20209;-77
2022/10/25 00:42:58;;;;;;;36.17;15.63;;;;;;;-141.28;100.00;49274.41;5122381;27;20254;-76
2022/10/25 00:45:27;;;;;;;47.90;17.60;;;;;;;-141.28;100.00;49258.69;5134808;27;20277;-75
2022/10/25 00:48:00;;;;;;;44.43;19.60;;;;;;;-141.28;100.00;49254.78;5134750;27;20195;-75
2022/10/25 00:50:40;;;;;;;46.40;22.40;;;;;;;-141.28;100.00;49266.56;5134016;27;20198;-76
2022/10/25 00:53:14;;;;;;;57.10;27.93;;;;;;;-141.28;100.00;49246.94;5133906;27;20655;-76
2022/10/25 00:55:46;;;;;;;57.60;25.70;;;;;;;-141.28;100.00;49241.03;5121415;27;20196;-79
2022/10/25 00:58:17;;;;;;;56.23;25.03;;;;;;;-141.28;100.00;49246.94;5133799;27;20294;-76
2022/10/25 01:00:45;;;;;;;55.33;23.50;;;;;;;-141.28;100.00;49235.16;5133479;27;20202;-80
2022/10/25 01:03:13;;;;;;;60.23;24.00;;;;;;;-141.28;100.00;49217.50;5133306;27;20218;-76
2022/10/25 01:05:40;;;;;;;47.50;23.10;;;;;;;-141.28;100.00;49205.72;5133660;27;20222;-77
2022/10/25 01:08:09;;;;;;;57.13;21.60;;;;;;;-141.28;100.00;49170.41;5133810;27;20206;-78
2022/10/25 01:10:36;;;;;;;47.30;19.43;;;;;;;-141.28;100.00;49180.22;5133419;27;20205;-74
2022/10/25 01:13:03;;;;;;;49.37;19.90;;;;;;;-141.28;100.00;49166.47;5133668;27;20233;-79
2022/10/25 01:15:40;;;;;;;44.87;19.77;;;;;;;-141.28;100.00;49211.59;5133193;27;20194;-79
2022/10/25 01:18:15;;;;;;;42.03;18.27;;;;;;;-141.28;100.00;49215.53;5133208;27;20201;-78
2022/10/25 01:21:21;;;;;;;46.07;18.10;;;;;;;-141.28;100.00;49239.09;5135065;27;20262;-78
2022/10/25 01:24:09;;;;;;;45.70;18.73;;;;;;;-141.28;100.00;49258.69;5140175;27;20254;-77
2022/10/25 01:26:55;;;;;;;43.67;19.07;;;;;;;-141.28;100.00;49223.38;5150891;27;20198;-74
2022/10/25 01:29:40;;;;;;;47.37;18.13;;;;;;;-141.28;100.00;49225.34;5144423;27;20232;-78
2022/10/25 01:32:13;;;;;;;53.47;18.93;;;;;;;-141.28;100.00;49211.59;5145577;27;20198;-76
2022/10/25 01:34:46;;;;;;;50.40;18.97;;;;;;;-141.28;100.00;49195.91;5137025;27;20275;-77
2022/10/25 01:37:23;;;;;;;40.37;17.43;;;;;;;-141.28;100.00;49195.91;5133423;27;20306;-80
2022/10/25 01:39:57;;;;;;;39.70;16.73;;;;;;;-141.28;100.00;49195.91;5132959;27;20730;-76
2022/10/25 01:42:31;;;;;;;39.37;17.17;;;;;;;-141.28;100.00;49215.53;5132215;27;20202;-76
2022/10/25 01:45:07;;;;;;;38.43;16.53;;;;;;;-141.28;100.00;49213.56;5133238;27;20271;-75
2022/10/25 01:47:41;;;;;;;41.93;16.27;;;;;;;-141.28;100.00;49213.56;5120705;27;20205;-76
2022/10/25 01:50:13;;;;;;;44.57;16.70;;;;;;;-141.28;100.00;49223.38;5132675;27;20250;-78
2022/10/25 01:52:40;;;;;;;42.03;16.83;;;;;;;-141.28;100.00;49205.72;5132888;27;20742;-77
2022/10/25 01:55:12;;;;;;;46.07;15.67;;;;;;;-141.28;100.00;49223.38;5132435;27;20226;-74
2022/10/25 01:57:55;;;;;;;39.53;15.60;;;;;;;-141.28;100.00;49219.47;5126240;27;20206;-79
2022/10/25 02:00:25;;;;;;;48.47;16.70;;;;;;;-141.28;100.00;49215.53;5130709;27;20202;-77
2022/10/25 02:03:13;;;;;;;45.57;15.53;;;;;;;-141.28;100.00;49239.09;5133887;27;20589;-76
2022/10/25 02:05:52;;;;;;;35.07;16.07;;;;;;;-141.28;100.00;49231.22;5132695;27;20198;-76
2022/10/25 02:08:34;;;;;;;39.67;16.20;;;;;;;-141.28;100.00;49248.88;5132475;27;20250;-78
2022/10/25 02:11:09;;;;;;;40.77;15.57;;;;;;;-141.28;100.00;49239.09;5133146;27;20235;-78
2022/10/25 02:13:44;;;;;;;47.90;16.03;;;;;;;-141.28;100.00;49235.16;5132307;27;20270;-75
2022/10/25 02:16:12;;;;;;;41.10;15.03;;;;;;;-141.28;100.00;49231.22;5132060;28;20251;-77
2022/10/25 02:18:48;;;;;;;36.13;12.73;;;;;;;-141.28;100.00;49231.22;5132596;28;20198;-78
2022/10/25 02:21:17;;;;;;;26.33;10.60;;;;;;;-141.28;100.00;49243.00;5132530;28;20201;-74
2022/10/25 02:23:48;;;;;;;28.13;13.27;;;;;;;-141.28;100.00;49229.28;5132363;28;20258;-76
2022/10/25 02:26:18;;;;;;;34.97;12.47;;;;;;;-141.28;100.00;49246.94;5132800;28;20209;-77
2022/10/25 02:28:46;;;;;;;32.47;12.63;;;;;;;-141.28;100.00;49244.97;5122149;28;20291;-76
2022/10/25 02:31:16;;;;;;;41.30;14.10;;;;;;;-141.28;100.00;49246.94;5130114;28;20281;-78
2022/10/25 02:33:47;;;;;;;28.57;13.30;;;;;;;-141.28;100.00;49266.56;5132762;28;20222;-79
2022/10/25 02:36:15;;;;;;;29.83;13.50;;;;;;;-141.28;100.00;49276.38;5132096;28;20198;-76
2022/10/25 02:38:43;;;;;;;27.67;12.50;;;;;;;-141.28;100.00;49278.31;5131773;28;20202;-76
2022/10/25 02:41:11;;;;;;;34.10;12.50;;;;;;;-141.28;100.00;49278.31;5132119;28;20198;-76
2022/10/25 02:43:38;;;;;;;33.10;12.43;;;;;;;-141.28;100.00;49278.31;5131877;28;20214;-78
2022/10/25 02:46:09;;;;;;;29.90;11.57;;;;;;;-141.28;100.00;49290.09;5131995;28;20259;-79
2022/10/25 02:48:36;;;;;;;36.20;11.87;;;;;;;-141.28;100.00;49303.84;5132376;28;20202;-77
2022/10/25 02:51:05;;;;;;;31.17;11.17;;;;;;;-141.28;100.00;49262.63;5132320;28;20287;-75
2022/10/25 02:53:33;;;;;;;28.47;11.47;;;;;;;-141.28;100.00;49309.72;5134777;27;20257;-75
2022/10/25 02:56:01;;;;;;;26.67;11.67;;;;;;;-141.28;100.00;49323.44;5124381;27;20202;-79
2022/10/25 02:58:31;;;;;;;33.30;13.93;;;;;;;-141.28;100.00;49305.78;5135879;27;20589;-75
2022/10/25 03:01:00;;;;;;;39.40;13.53;;;;;;;-141.28;100.00;49323.44;5117701;27;20194;-75
2022/10/25 03:03:28;;;;;;;39.57;13.90;;;;;;;-141.28;100.00;49345.03;5135864;27;20225;-78
2022/10/25 03:05:55;;;;;;;50.93;17.13;;;;;;;-141.28;100.00;49352.88;5136450;27;20214;-77
2022/10/25 03:08:24;;;;;;;47.63;15.43;;;;;;;-141.28;100.00;49333.25;5135769;27;20246;-77
2022/10/25 03:10:51;;;;;;;38.87;14.57;;;;;;;-141.28;100.00;49356.81;5135818;27;20211;-76
2022/10/25 03:13:18;;;;;;;29.10;13.87;;;;;;;-141.28;100.00;49339.16;5135686;27;20234;-78
2022/10/25 03:15:46;;;;;;;37.63;14.50;;;;;;;-141.28;100.00;49358.78;5136013;27;20636;-75
2022/10/25 03:18:13;;;;;;;44.20;15.70;;;;;;;-141.28;100.00;49364.66;5136264;27;20633;-79
2022/10/25 03:20:41;;;;;;;45.13;16.07;;;;;;;-141.28;100.00;49362.69;5136242;27;20198;-78
2022/10/25 03:23:07;;;;;;;42.67;16.90;;;;;;;-141.28;100.00;49360.75;5135213;27;20194;-79
2022/10/25 03:25:36;;;;;;;41.47;15.10;;;;;;;-141.28;100.00;49294.03;5135445;27;20213;-79
2022/10/25 03:28:03;;;;;;;47.87;15.10;;;;;;;-141.28;100.00;49337.19;5131188;27;20191;-75
2022/10/25 03:30:31;;;;;;;47.07;14.70;;;;;;;-141.28;100.00;49331.31;5127053;27;20251;-79
2022/10/25 03:32:58;;;;;;;38.93;13.60;;;;;;;-141.28;100.00;49333.25;5135316;27;20259;-79
2022/10/25 03:35:25;;;;;;;38.23;14.03;;;;;;;-141.28;100.00;49356.81;5135565;27;20226;-77
2022/10/25 03:37:53;;;;;;;65.60;15.87;;;;;;;-141.28;100.00;49348.97;5134456;27;20251;-76
2022/10/25 03:40:20;;;;;;;51.33;15.77;;;;;;;-141.28;100.00;49380.34;5135579;27;20210;-76
2022/10/25 03:42:49;;;;;;;49.23;16.03;;;;;;;-141.28;100.00;49372.50;5134865;27;20673;-77
2022/10/25 03:45:16;;;;;;;31.87;12.80;;;;;;;-141.28;100.00;49372.50;5135502;27;20271;-77
2022/10/25 03:47:43;;;;;;;34.70;13.63;;;;;;;-141.28;100.00;49339.16;5134634;27;20202;-76
2022/10/25 03:50:10;;;;;;;51.17;18.47;;;;;;;-141.28;100.00;49399.97;5134853;27;20657;-75
2022/10/25 03:52:37;;;;;;;38.70;15.77;;;;;;;-141.28;100.00;49411.75;5115702;27;20206;-75
2022/10/25 03:55:05;;;;;;;42.67;15.83;;;;;;;-141.28;100.00;49403.91;5134703;27;20226;-76
2022/10/25 03:57:32;;;;;;;32.10;14.53;;;;;;;-141.28;100.00;49425.50;5135204;27;20202;-75
2022/10/25 04:00:00;;;;;;;40.83;16.63;;;;;;;-141.28;100.00;49431.38;5134777;27;20285;-75
2022/10/25 04:02:27;;;;;;;38.27;15.40;;;;;;;-141.28;100.00;49419.59;5134887;27;20229;-77
2022/10/25 04:04:55;;;;;;;40.53;18.40;;;;;;;-141.28;100.00;49443.16;5133715;27;20217;-79
2022/10/25 04:07:23;;;;;;;47.17;25.53;;;;;;;-141.28;100.00;49454.94;5134980;27;20615;-76
2022/10/25 04:09:50;;;;;;;38.27;17.60;;;;;;;-141.28;100.00;49466.69;5134893;27;20206;-76
2022/10/25 04:12:18;;;;;;;42.63;16.70;;;;;;;-141.28;100.00;49500.06;5134756;27;20629;-76
2022/10/25 04:14:44;;;;;;;39.70;14.47;;;;;;;-141.28;100.00;49511.84;5134415;27;20226;-78
2022/10/25 04:17:13;;;;;;;45.20;16.63;;;;;;;-141.28;100.00;49529.50;5136207;27;20627;-81
2022/10/25 04:19:40;;;;;;;34.57;15.97;;;;;;;-141.28;100.00;49537.34;5134461;27;20197;-77
2022/10/25 04:22:07;;;;;;;38.43;14.73;;;;;;;-141.28;100.00;49549.13;5135196;27;20653;-78
2022/10/25 04:24:34;;;;;;;44.80;16.63;;;;;;;-141.28;100.00;49576.59;5134404;27;20198;-75
2022/10/25 04:27:01;;;;;;;44.40;16.10;;;;;;;-141.28;100.00;49598.16;5134291;27;20665;-80
2022/10/25 04:29:28;;;;;;;42.47;15.87;;;;;;;-141.28;100.00;49560.88;5128151;27;20199;-79
2022/10/25 04:31:55;;;;;;;55.67;20.60;;;;;;;-141.28;100.00;49619.75;5120362;27;20213;-77
2022/10/25 04:34:23;;;;;;;58.67;20.40;;;;;;;-141.28;100.00;49631.53;5134624;27;20612;-77
2022/10/25 04:36:50;;;;;;;57.97;19.23;;;;;;;-141.28;100.00;49678.63;5136525;27;20194;-76
2022/10/25 04:39:17;;;;;;;39.97;13.47;;;;;;;-141.28;100.00;49698.25;5135153;27;20205;-75
2022/10/25 04:41:44;;;;;;;40.27;16.87;;;;;;;-141.28;100.00;49710.03;5133996;27;20198;-77
2022/10/25 04:44:11;;;;;;;47.57;17.77;;;;;;;-141.28;100.00;49721.81;5133845;27;20202;-77
2022/10/25 04:46:38;;;;;;;85.50;19.23;;;;;;;-141.28;100.00;49751.25;5133567;27;20205;-78
2022/10/25 04:49:04;;;;;;;69.37;17.90;;;;;;;-141.28;100.00;49733.56;5133911;27;20753;-76
2022/10/25 04:51:33;;;;;;;59.67;20.57;;;;;;;-141.28;100.00;49753.19;5133512;27;20582;-77
2022/10/25 04:54:00;;;;;;;57.73;20.00;;;;;;;-141.28;100.00;49761.06;5133781;27;20236;-77
2022/10/25 04:56:28;;;;;;;49.17;18.37;;;;;;;-141.28;100.00;49812.06;5133562;27;20202;-77
2022/10/25 04:58:55;;;;;;;61.90;19.10;;;;;;;-141.28;100.00;49808.16;5133884;27;20206;-75
2022/10/25 05:01:22;;;;;;;54.57;18.43;;;;;;;-141.28;100.00;49839.56;5128165;27;20294;-76
2022/10/25 05:03:49;;;;;;;78.20;24.27;;;;;;;-141.28;100.00;49874.88;5126092;27;20653;-80
2022/10/25 05:06:18;;;;;;;61.40;18.90;;;;;;;-141.28;100.00;49857.22;5133441;27;20293;-74
2022/10/25 05:08:48;;;;;;;62.87;18.57;;;;;;;-141.28;100.00;49898.44;5133369;27;20573;-76
2022/10/25 05:11:16;;;;;;;135.60;24.53;;;;;;;-141.28;100.00;49902.34;5133048;27;20290;-78
2022/10/25 05:13:44;;;;;;;146.43;24.20;;;;;;;-141.28;100.00;49929.81;5133160;27;20657;-77
2022/10/25 05:16:13;;;;;;;91.67;21.47;;;;;;;-141.28;100.00;49976.94;5132827;27;20253;-75
2022/10/25 05:18:41;;;;;;;111.17;24.27;;;;;;;-141.28;100.00;49994.59;5132350;27;20570;-75
2022/10/25 05:21:10;;;;;;;93.13;23.93;;;;;;;-141.28;100.00;50020.09;5133298;27;20682;-76
2022/10/25 05:23:36;;;;;;;86.37;24.50;;;;;;;-141.28;100.00;50077.03;5132802;27;20653;-76
2022/10/25 05:26:07;;;;;;;94.13;25.07;;;;;;;-141.28;100.00;50161.41;5133106;27;20304;-79
2022/10/25 05:28:34;;;;;;;66.17;20.67;;;;;;;-141.28;100.00;50153.56;5124510;27;20202;-76
2022/10/25 05:31:03;;;;;;;57.37;19.67;;;;;;;-141.28;100.00;50090.75;5129394;27;20252;-77
2022/10/25 05:33:30;;;;;;;72.50;19.43;;;;;;;-141.28;100.00;50090.75;5132727;27;20281;-77
2022/10/25 05:35:59;;;;;;;68.70;20.30;;;;;;;-141.28;100.00;50104.50;5132862;27;20226;-76
2022/10/25 05:38:26;;;;;;;62.47;17.17;;;;;;;-141.28;100.00;50287.03;5132997;27;20615;-76
2022/10/25 05:40:54;;;;;;;55.23;17.50;;;;;;;-141.28;100.00;50345.91;5132524;27;20289;-78
2022/10/25 05:43:23;;;;;;;70.17;19.13;;;;;;;-141.28;100.00;50461.72;5132688;27;20195;-75
2022/10/25 05:45:50;;;;;;;74.40;22.60;;;;;;;-141.28;100.00;50491.16;5132914;27;20257;-76
2022/10/25 05:48:18;;;;;;;85.23;23.43;;;;;;;-141.28;100.00;50624.63;5133171;27;20202;-76
2022/10/25 05:50:46;;;;;;;80.53;29.70;;;;;;;-141.28;100.00;50681.56;5132496;27;20200;-76
2022/10/25 05:53:13;;;;;;;65.27;21.10;;;;;;;-141.28;100.00;50707.09;5132762;27;20206;-76
2022/10/25 05:55:40;;;;;;;75.63;19.20;;;;;;;-141.28;100.00;50703.16;5136065;27;20278;-76
2022/10/25 05:58:06;;;;;;;61.43;20.27;;;;;;;-141.28;100.00;50805.25;5134473;27;20262;-80
2022/10/25 06:00:35;;;;;;;42.33;15.37;;;;;;;-141.28;100.00;50883.75;5147436;27;20209;-76
2022/10/25 06:03:02;;;;;;;44.33;12.80;;;;;;;-141.28;100.00;51070.25;5152220;27;20221;-75
2022/10/25 06:05:29;;;;;;;36.27;13.30;;;;;;;-141.28;100.00;51186.09;5148454;27;20258;-74
2022/10/25 06:07:56;;;;;;;37.97;13.60;;;;;;;-141.28;100.00;51170.38;5140549;27;20262;-75
2022/10/25 06:10:23;;;;;;;34.37;13.83;;;;;;;-141.28;100.00;51217.50;5140298;27;20198;-74
2022/10/25 06:12:51;;;;;;;33.03;14.77;;;;;;;-141.28;100.00;51068.28;5140221;27;20257;-77
2022/10/25 06:15:18;;;;;;;44.20;14.50;;;;;;;-141.28;100.00;51164.50;5135519;27;20230;-79
2022/10/25 06:17:46;;;;;;;40.87;16.17;;;;;;;-141.28;100.00;51142.91;5133102;28;20275;-78
2022/10/25 06:20:13;;;;;;;32.43;14.50;;;;;;;-141.28;100.00;51042.78;5132768;28;20260;-75
2022/10/25 06:22:40;;;;;;;37.43;15.50;;;;;;;-141.28;100.00;50915.16;5132523;28;20202;-77
2022/10/25 06:25:08;;;;;;;36.90;15.07;;;;;;;-141.28;100.00;50805.25;5132784;27;20202;-76
2022/10/25 06:27:35;;;;;;;42.10;15.77;;;;;;;-141.28;100.00;50746.34;5132183;27;20681;-77
2022/10/25 06:30:02;;;;;;;38.70;16.30;;;;;;;-141.28;100.00;50728.69;5124264;27;20713;-76
2022/10/25 06:32:29;;;;;;;35.47;14.53;;;;;;;-141.28;100.00;50652.13;5137282;27;20206;-76
2022/10/25 06:34:58;;;;;;;29.10;13.80;;;;;;;-141.28;100.00;50689.41;5136790;27;20230;-77
2022/10/25 06:37:25;;;;;;;51.70;15.43;;;;;;;-141.28;100.00;50714.94;5136537;27;20198;-74
2022/10/25 06:39:51;;;;;;;48.30;15.90;;;;;;;-141.28;100.00;50705.13;5136842;27;20194;-75
2022/10/25 06:42:19;;;;;;;49.40;15.97;;;;;;;-141.28;100.00;50762.06;5136392;27;20664;-76
2022/10/25 06:44:46;;;;;;;49.03;15.97;;;;;;;-141.28;100.00;50762.06;5136533;27;20206;-76
2022/10/25 06:47:12;;;;;;;47.73;15.40;;;;;;;-141.28;100.00;50732.59;5136202;27;20202;-75
2022/10/25 06:49:40;;;;;;;38.37;14.57;;;;;;;-141.28;100.00;50734.56;5136115;27;20202;-77
2022/10/25 06:52:08;;;;;;;41.80;13.20;;;;;;;-141.28;100.00;50787.56;5136505;27;20221;-79
2022/10/25 06:54:36;;;;;;;47.07;14.40;;;;;;;-141.28;100.00;50813.09;5137865;27;20281;-77
2022/10/25 06:57:03;;;;;;;29.50;13.60;;;;;;;-141.28;100.00;50789.53;5138197;27;20680;-78
2022/10/25 06:59:32;;;;;;;49.70;16.30;;;;;;;-141.28;100.00;50828.78;5138918;27;20230;-78
2022/10/25 07:01:58;;;;;;;53.20;16.60;;;;;;;-141.28;100.00;50832.72;5138110;27;20619;-76
2022/10/25 07:04:26;;;;;;;46.00;16.47;;;;;;;-141.28;100.00;50840.56;5138465;27;20577;-80
2022/10/25 07:06:53;;;;;;;49.93;16.60;;;;;;;-141.28;100.00;50818.97;5137263;27;20202;-75
2022/10/25 07:09:21;;;;;;;56.20;16.93;;;;;;;-141.28;100.00;50791.50;5137313;27;20658;-77
2022/10/25 07:11:48;;;;;;;55.60;17.23;;;;;;;-141.28;100.00;50838.63;5137839;27;20234;-75
2022/10/25 07:14:15;;;;;;;44.67;14.63;;;;;;;-141.28;100.00;50844.50;5139287;27;20202;-77
2022/10/25 07:16:43;;;;;;;54.83;15.47;;;;;;;-141.28;100.00;50803.28;5135463;27;20241;-78
2022/10/25 07:19:10;;;;;;;55.77;16.40;;;;;;;-141.28;100.00;50732.59;5135764;27;20194;-78
2022/10/25 07:21:36;;;;;;;46.50;14.83;;;;;;;-141.28;100.00;50718.88;5135690;27;20217;-76
2022/10/25 07:24:04;;;;;;;46.73;15.23;;;;;;;-141.28;100.00;50699.22;5136091;27;20194;-76
2022/10/25 07:26:34;;;;;;;40.60;13.73;;;;;;;-141.28;100.00;50679.59;5135449;27;20202;-76
2022/10/25 07:29:02;;;;;;;55.27;13.97;;;;;;;-141.28;100.00;50575.56;5123384;27;20202;-75
2022/10/25 07:31:31;;;;;;;66.20;17.43;;;;;;;-141.28;100.00;50569.69;5121975;27;20206;-78
2022/10/25 07:33:59;;;;;;;63.47;15.90;;;;;;;-141.28;100.00;50620.72;5135190;27;20745;-74
2022/10/25 07:36:27;;;;;;;50.07;14.63;;;;;;;-141.28;100.00;50522.56;5139707;27;20237;-75
2022/10/25 07:38:55;;;;;;;47.40;13.10;;;;;;;-141.28;100.00;50459.75;5141140;27;20202;-75
2022/10/25 07:41:21;;;;;;;44.87;15.03;;;;;;;-141.28;100.00;50563.78;5142976;27;20202;-77
2022/10/25 07:43:50;;;;;;;44.87;14.90;;;;;;;-141.28;100.00;50550.06;5140882;27;20225;-78
2022/10/25 07:46:17;;;;;;;40.80;13.83;;;;;;;-141.28;100.00;50495.09;5135780;27;20681;-77
2022/10/25 07:48:44;;;;;;;42.67;13.30;;;;;;;-141.28;100.00;50479.38;5135645;27;20677;-75
2022/10/25 07:51:13;;;;;;;56.67;14.63;;;;;;;-141.28;100.00;50455.84;5135896;27;20190;-78
2022/10/25 07:53:40;;;;;;;46.53;14.13;;;;;;;-141.28;100.00;50361.63;5135035;27;20749;-78
2022/10/25 07:56:10;;;;;;;49.67;15.40;;;;;;;-141.28;100.00;50202.63;5134997;27;20708;-77
2022/10/25 07:58:38;;;;;;;45.50;14.77;;;;;;;-141.28;100.00;50137.88;5134582;27;20199;-77
2022/10/25 08:01:08;;;;;;;46.80;15.47;;;;;;;-141.28;100.00;50353.75;5134631;27;20642;-78
2022/10/25 08:03:36;;;;;;;49.30;14.33;;;;;;;-141.28;100.00;50436.19;5134318;27;20283;-76
2022/10/25 08:06:03;;;;;;;38.93;12.43;;;;;;;-141.28;100.00;50424.44;5135055;27;20237;-75
2022/10/25 08:08:31;;;;;;;40.60;13.57;;;;;;;-141.28;100.00;50479.38;5134552;27;20228;-77
2022/10/25 08:10:58;;;;;;;40.57;13.60;;;;;;;-141.28;100.00;50177.13;5134706;27;20711;-76
2022/10/25 08:13:26;;;;;;;35.20;13.60;;;;;;;-141.28;100.00;50137.88;5134737;27;20312;-76
2022/10/25 08:15:54;;;;;;;46.77;14.20;;;;;;;-141.28;100.00;50102.53;5134731;27;20225;-77
2022/10/25 08:18:23;;;;;;;58.83;14.40;;;;;;;-141.28;100.00;50188.91;5134481;27;20202;-74
2022/10/25 08:20:51;;;;;;;37.30;12.17;;;;;;;-141.28;100.00;50508.81;5134260;27;20297;-79
2022/10/25 08:23:17;;;;;;;49.97;14.07;;;;;;;-141.28;100.00;50444.06;5129162;27;20214;-78
2022/10/25 08:25:45;;;;;;;45.00;14.10;;;;;;;-141.28;100.00;50389.09;5127004;27;20198;-76
2022/10/25 08:28:11;;;;;;;46.40;13.60;;;;;;;-141.28;100.00;50330.22;5128691;27;20666;-77
2022/10/25 08:30:40;;;;;;;37.67;12.97;;;;;;;-141.28;100.00;50292.91;5129298;27;20255;-76
2022/10/25 08:33:07;;;;;;;44.17;12.60;;;;;;;-141.28;100.00;50263.47;5135135;27;20721;-79
2022/10/25 08:35:35;;;;;;;46.20;13.07;;;;;;;-141.28;100.00;50263.47;5133774;27;20734;-75
2022/10/25 08:38:03;;;;;;;30.73;11.53;;;;;;;-141.28;100.00;50147.69;5133980;27;20565;-78
2022/10/25 08:40:45;;;;;;;40.63;12.60;;;;;;;-141.28;100.00;50102.53;5133975;27;20202;-76
2022/10/25 08:43:25;;;;;;;41.40;10.70;;;;;;;-141.28;100.00;50161.41;5136467;27;20210;-78
2022/10/25 08:45:57;;;;;;;48.60;12.03;;;;;;;-141.28;100.00;50186.94;5120998;27;20225;-78
2022/10/25 08:48:28;;;;;;;39.60;11.17;;;;;;;-141.28;100.00;50155.53;5133273;27;20195;-79
2022/10/25 08:51:00;;;;;;;30.43;9.30;;;;;;;-141.28;100.00;50200.66;5134043;27;20259;-78
2022/10/25 08:53:32;;;;;;;24.63;9.33;;;;;;;-141.28;100.00;49969.06;5133701;27;20194;-77
2022/10/25 08:56:01;;;;;;;22.80;9.90;;;;;;;-141.28;100.00;50039.72;5133910;27;20254;-80
2022/10/25 08:58:42;;;;;;;24.93;8.57;;;;;;;-141.28;100.00;49998.50;5133929;27;20221;-78
2022/10/25 09:01:16;;;;;;;35.60;10.23;;;;;;;-141.28;100.00;49943.56;5133780;27;20683;-78
2022/10/25 09:03:43;;;;;;;29.23;10.13;;;;;;;-141.28;100.00;49963.19;5120722;27;20222;-77
2022/10/25 09:06:24;;;;;;;33.03;10.27;;;;;;;-141.28;100.00;49874.88;5133557;27;20210;-77
2022/10/25 09:09:04;;;;;;;31.17;10.10;;;;;;;-141.28;100.00;49929.81;5133296;27;20209;-77
2022/10/25 09:11:47;;;;;;;31.20;10.17;;;;;;;-141.28;100.00;49870.94;5120201;27;20236;-77
2022/10/25 09:14:23;;;;;;;27.17;9.73;;;;;;;-141.28;100.00;49863.09;5133190;27;20198;-76
2022/10/25 09:16:51;;;;;;;35.47;10.43;;;;;;;-141.28;100.00;49594.25;5133628;27;20317;-77
2022/10/25 09:19:28;;;;;;;33.13;9.60;;;;;;;-141.28;100.00;49451.00;5133174;27;20206;-74
2022/10/25 09:22:01;;;;;;;31.97;9.50;;;;;;;-141.28;100.00;49454.94;5133169;27;20198;-77
2022/10/25 09:24:36;;;;;;;24.90;8.97;;;;;;;-141.28;100.00;49374.47;5133199;27;20214;-76
2022/10/25 09:27:06;;;;;;;28.03;9.30;;;;;;;-141.28;100.00;49207.69;5135448;27;20211;-76
2022/10/25 09:29:38;;;;;;;28.43;9.77;;;;;;;-141.28;100.00;49101.72;5120655;27;20686;-77
2022/10/25 09:32:12;;;;;;;27.23;8.23;;;;;;;-141.28;100.00;49054.66;5133395;27;20640;-76
2022/10/25 09:34:40;;;;;;;37.67;9.23;;;;;;;-141.28;100.00;49086.03;5132744;27;20197;-77
2022/10/25 09:37:16;;;;;;;38.10;9.13;;;;;;;-141.28;100.00;49036.97;5132869;27;20244;-78
2022/10/25 09:39:48;;;;;;;23.60;8.63;;;;;;;-141.28;100.00;48972.25;5120533;27;20247;-80
2022/10/25 09:42:20;;;;;;;27.67;8.53;;;;;;;-141.28;100.00;48987.94;5132892;27;20205;-77
2022/10/25 09:44:50;;;;;;;31.13;9.93;;;;;;;-141.28;100.00;49003.63;5132610;27;20205;-77
2022/10/25 09:47:26;;;;;;;44.13;10.23;;;;;;;-141.28;100.00;48962.44;5132595;27;20246;-76
2022/10/25 09:49:59;;;;;;;36.50;9.10;;;;;;;-141.28;100.00;48956.53;5136092;27;20238;-77
2022/10/25 09:52:35;;;;;;;25.90;9.80;;;;;;;-141.28;100.00;48991.84;5132352;27;20555;-76
2022/10/25 09:55:21;;;;;;;30.73;9.43;;;;;;;-141.28;100.00;49015.41;5132891;27;20198;-74
2022/10/25 09:57:48;;;;;;;40.33;9.60;;;;;;;-141.28;100.00;48976.16;5132768;27;20226;-76
2022/10/25 10:00:15;;;;;;;30.37;10.50;;;;;;;-141.28;100.00;49040.91;5132309;27;20202;-77
2022/10/25 10:02:43;;;;;;;27.30;10.33;;;;;;;-141.28;100.00;49035.03;5131729;27;20251;-79
2022/10/25 10:05:15;;;;;;;36.47;10.60;;;;;;;-141.28;100.00;48964.38;5131858;27;20535;-77
2022/10/25 10:07:45;;;;;;;35.43;10.17;;;;;;;-141.28;100.00;49058.56;5132528;27;20632;-78
2022/10/25 10:10:16;;;;;;;28.93;10.07;;;;;;;-141.28;100.00;49007.56;5132252;27;20198;-79
2022/10/25 10:12:50;;;;;;;26.00;9.73;;;;;;;-141.28;100.00;48931.03;5132392;27;20607;-77
2022/10/25 10:15:22;;;;;;;35.07;10.43;;;;;;;-141.28;100.00;49019.31;5132768;27;20208;-80
2022/10/25 10:18:19;;;;;;;38.43;10.17;;;;;;;-141.28;100.00;48993.81;5132157;27;20290;-80
2022/10/25 10:21:00;;;;;;;30.67;9.93;;;;;;;-141.28;100.00;48987.94;5132294;28;20210;-77
2022/10/25 10:23:31;;;;;;;31.13;10.57;;;;;;;-141.28;100.00;48901.59;5121280;28;20210;-77
2022/10/25 10:26:02;;;;;;;31.07;10.83;;;;;;;-141.28;99.75;48952.63;5132060;28;20198;-77
2022/10/25 10:28:29;;;;;;;31.47;9.83;;;;;;;-141.28;97.60;48968.31;5124605;28;20256;-80
2022/10/25 10:30:58;;;;;;;38.30;10.90;;;;;;;-141.28;100.00;49027.19;5127652;28;20256;-77
2022/10/25 10:33:29;;;;;;;27.70;10.77;;;;;;;-141.28;100.00;48999.72;5132461;28;20575;-76
2022/10/25 10:35:56;;;;;;;35.60;10.77;;;;;;;-141.28;100.00;48995.78;5132323;28;20201;-76
2022/10/25 10:38:26;;;;;;;30.83;10.20;;;;;;;-141.28;94.85;48968.31;5132314;28;20259;-76
2022/10/25 10:41:12;;;;;;;26.83;9.97;;;;;;;-141.28;90.37;48984.00;5132138;28;20559;-75
2022/10/25 10:43:39;;;;;;;31.70;10.97;;;;;;;-141.28;87.08;48956.53;5132295;28;20285;-76
2022/10/25 10:46:11;;;;;;;38.83;12.67;;;;;;;-141.28;89.93;48976.16;5131537;28;20225;-77
2022/10/25 10:48:41;;;;;;;38.57;10.60;;;;;;;-141.28;87.13;48962.44;5132417;28;20224;-78
2022/10/25 10:51:08;;;;;;;35.40;11.37;;;;;;;-141.28;88.17;49660.97;5132208;28;20285;-77
2022/10/25 10:53:36;;;;;;;37.07;11.47;;;;;;;-141.28;92.16;48999.72;5131876;28;20205;-79
2022/10/25 10:56:07;;;;;;;42.73;11.43;;;;;;;-141.28;93.00;48972.25;5131932;28;20220;-79
2022/10/25 10:58:35;;;;;;;40.97;11.43;;;;;;;-141.28;87.72;48964.38;5131810;28;20198;-78
2022/10/25 11:01:04;;;;;;;32.77;10.90;;;;;;;-141.28;84.19;48936.91;5131776;28;20202;-75
2022/10/25 11:03:46;;;;;;;26.83;9.80;;;;;;;-141.28;75.77;48893.75;5131594;28;20305;-76
2022/10/25 11:06:18;;;;;;;30.33;8.63;;;;;;;-141.28;67.82;48915.34;5121178;28;20737;-79